Time;durP1;ratioP1;P1;durP2;ratioP2;P2;SDS_P1;SDS_P2;PMS_P1;PMS_P2;Temp;Humidity;BMP_temperature;BMP_pressure;BME280_temperature;BME280_humidity;BME280_pressure;Samples;Min_cycle;Max_cycle;Signal;HPM_P1;HPM_P2
2023/07/06 00:01:24;;;;;;;5.03;1.45;;;25.40;99.90;;;;;;5093033;28;20024;-80
2023/07/06 00:03:56;;;;;;;4.03;1.52;;;25.40;99.90;;;;;;5093087;28;20460;-80
2023/07/06 00:06:23;;;;;;;2.40;1.27;;;25.40;99.90;;;;;;5092895;28;20360;-79
2023/07/06 00:08:52;;;;;;;4.30;1.65;;;25.30;99.90;;;;;;5091232;28;20050;-79
2023/07/06 00:11:20;;;;;;;5.45;1.58;;;25.30;99.90;;;;;;5092644;28;20485;-79
2023/07/06 00:13:47;;;;;;;4.28;1.38;;;25.20;99.90;;;;;;5092750;28;20028;-79
2023/07/06 00:16:13;;;;;;;3.25;1.38;;;25.20;99.90;;;;;;5092684;28;20511;-80
2023/07/06 00:18:41;;;;;;;3.88;1.17;;;25.00;99.90;;;;;;5093038;28;20047;-80
2023/07/06 00:21:08;;;;;;;3.00;1.30;;;25.10;99.90;;;;;;5092641;28;20032;-79
2023/07/06 00:23:34;;;;;;;;;;;25.00;99.90;;;;;;5093242;28;20180;-82
2023/07/06 00:26:00;;;;;;;2.42;1.45;;;24.80;99.90;;;;;;5092682;28;19904;-82
2023/07/06 00:28:28;;;;;;;3.25;1.42;;;24.80;99.90;;;;;;5092602;28;20427;-81
2023/07/06 00:31:01;;;;;;;3.38;1.52;;;24.80;99.90;;;;;;5092697;28;20134;-81
2023/07/06 00:33:29;;;;;;;4.28;1.40;;;24.70;99.90;;;;;;5092900;28;20115;-81
2023/07/06 00:35:55;;;;;;;4.00;1.60;;;24.60;99.90;;;;;;5092496;28;20058;-81
2023/07/06 00:38:23;;;;;;;3.70;1.60;;;24.60;99.90;;;;;;5092894;28;20024;-82
2023/07/06 00:41:00;;;;;;;3.22;1.50;;;24.60;99.90;;;;;;5092385;28;20476;-80
2023/07/06 00:43:50;;;;;;;4.90;1.52;;;24.50;99.90;;;;;;5092389;28;20107;-82
2023/07/06 00:46:17;;;;;;;4.82;1.65;;;24.40;99.90;;;;;;5092454;28;20059;-81
2023/07/06 00:48:45;;;;;;;3.40;1.63;;;24.40;99.90;;;;;;5092560;28;20022;-81
2023/07/06 00:51:16;;;;;;;7.03;1.60;;;24.40;99.90;;;;;;5092330;28;20032;-79
2023/07/06 00:53:45;;;;;;;4.20;1.50;;;24.20;99.90;;;;;;5092727;28;20602;-81
2023/07/06 00:56:16;;;;;;;4.38;1.75;;;24.10;99.90;;;;;;5092079;28;20540;-81
2023/07/06 00:58:50;;;;;;;5.07;1.60;;;24.00;99.90;;;;;;5092904;28;20020;-81
2023/07/06 01:01:21;;;;;;;5.30;1.60;;;23.90;99.90;;;;;;5092394;28;20054;-81
2023/07/06 01:03:53;;;;;;;3.80;1.77;;;23.90;99.90;;;;;;5092832;28;20099;-80
2023/07/06 01:06:26;;;;;;;5.25;1.83;;;23.90;99.90;;;;;;5092774;28;20401;-81
2023/07/06 01:08:53;;;;;;;4.65;2.00;;;24.00;99.90;;;;;;5092549;28;20031;-80
2023/07/06 01:11:20;;;;;;;5.00;1.98;;;23.90;99.90;;;;;;5091992;28;20040;-79
2023/07/06 01:13:51;;;;;;;4.63;1.95;;;24.00;99.90;;;;;;5092697;28;20027;-78
2023/07/06 01:16:25;;;;;;;4.32;1.80;;;24.00;99.90;;;;;;5091937;28;20071;-80
2023/07/06 01:18:54;;;;;;;7.22;2.10;;;24.00;99.90;;;;;;5092676;28;20016;-79
2023/07/06 01:21:31;;;;;;;4.72;2.00;;;23.90;99.90;;;;;;5094755;28;20032;-80
2023/07/06 01:24:00;;;;;;;4.13;1.65;;;23.90;99.90;;;;;;5095879;28;20048;-79
2023/07/06 01:27:02;;;;;;;4.43;1.70;;;23.80;99.90;;;;;;5095719;28;20024;-80
2023/07/06 01:29:52;;;;;;;6.13;1.83;;;23.70;99.90;;;;;;5092954;28;20354;-79
2023/07/06 01:32:27;;;;;;;4.55;1.60;;;23.60;99.90;;;;;;5096098;28;20036;-79
2023/07/06 01:35:07;;;;;;;3.58;1.85;;;23.60;99.90;;;;;;5094445;28;20020;-80
2023/07/06 01:37:36;;;;;;;4.85;1.83;;;23.60;99.90;;;;;;5075572;28;20035;-79
2023/07/06 01:40:09;;;;;;;3.55;1.73;;;23.50;99.90;;;;;;5075307;28;20023;-79
2023/07/06 01:42:37;;;;;;;4.32;1.85;;;23.60;99.90;;;;;;5075054;28;20485;-79
2023/07/06 01:45:04;;;;;;;4.45;1.60;;;23.70;99.90;;;;;;5108581;28;20391;-79
2023/07/06 01:47:34;;;;;;;5.20;1.65;;;23.80;99.90;;;;;;5074151;28;20480;-80
2023/07/06 01:50:01;;;;;;;4.70;1.70;;;23.90;99.90;;;;;;5074229;28;20021;-82
2023/07/06 01:52:46;;;;;;;6.47;1.52;;;23.90;99.90;;;;;;5075297;28;20136;-80
2023/07/06 01:55:37;;;;;;;4.57;1.45;;;24.10;99.90;;;;;;5075629;28;20016;-80
2023/07/06 01:58:43;;;;;;;4.43;1.50;;;24.20;99.90;;;;;;5075058;28;20020;-79
2023/07/06 02:01:15;;;;;;;5.03;1.50;;;24.30;99.90;;;;;;5052715;28;20059;-81
2023/07/06 02:03:42;;;;;;;3.13;1.55;;;24.40;99.90;;;;;;5053513;28;20139;-79
2023/07/06 02:06:11;;;;;;;5.30;1.38;;;24.50;99.90;;;;;;5061674;28;20044;-79
2023/07/06 02:08:41;;;;;;;5.10;1.70;;;24.60;99.90;;;;;;5073225;28;20397;-80
2023/07/06 02:11:09;;;;;;;5.57;1.80;;;24.60;99.90;;;;;;5072441;28;20040;-79
2023/07/06 02:13:35;;;;;;;3.20;1.60;;;24.60;99.90;;;;;;5072445;28;20037;-80
2023/07/06 02:16:05;;;;;;;3.13;1.55;;;24.50;99.90;;;;;;5072633;28;20037;-81
2023/07/06 02:18:34;;;;;;;3.97;1.70;;;24.40;99.90;;;;;;5072839;28;20047;-81
2023/07/06 02:21:01;;;;;;;5.78;1.83;;;24.40;99.90;;;;;;5072805;28;20071;-80
2023/07/06 02:23:27;;;;;;;3.75;1.65;;;24.30;99.90;;;;;;5072816;28;20495;-79
2023/07/06 02:25:53;;;;;;;3.65;1.48;;;24.30;99.90;;;;;;5072495;28;20477;-80
2023/07/06 02:28:23;;;;;;;3.75;1.38;;;24.30;99.90;;;;;;5072300;28;20048;-79
2023/07/06 02:30:55;;;;;;;4.60;1.48;;;24.30;99.90;;;;;;5072553;28;20029;-81
2023/07/06 02:33:21;;;;;;;4.03;1.58;;;24.20;99.90;;;;;;5072539;28;20059;-80
2023/07/06 02:35:48;;;;;;;6.40;1.75;;;24.30;99.90;;;;;;5090797;28;20051;-80
2023/07/06 02:38:19;;;;;;;6.00;1.88;;;24.20;99.90;;;;;;5095085;28;20054;-79
2023/07/06 02:40:46;;;;;;;5.03;1.70;;;24.20;99.90;;;;;;5094754;28;20110;-80
2023/07/06 02:43:13;;;;;;;3.50;1.50;;;24.00;99.90;;;;;;5094301;28;20028;-79
2023/07/06 02:45:39;;;;;;;4.95;1.73;;;24.00;99.90;;;;;;5094727;28;20024;-79
2023/07/06 02:48:05;;;;;;;5.18;1.70;;;24.00;99.90;;;;;;5094242;28;20032;-80
2023/07/06 02:50:32;;;;;;;4.50;1.80;;;24.00;99.90;;;;;;5094255;28;20107;-79
2023/07/06 02:52:58;;;;;;;5.40;1.75;;;24.00;99.90;;;;;;5094221;28;20036;-79
2023/07/06 02:55:26;;;;;;;;;;;24.00;99.90;;;;;;5094940;28;20042;-80
2023/07/06 02:57:52;;;;;;;4.82;1.88;;;24.00;99.90;;;;;;5094020;28;20406;-79
2023/07/06 03:00:18;;;;;;;4.13;1.88;;;24.00;99.90;;;;;;5094570;28;20077;-79
2023/07/06 03:02:48;;;;;;;4.47;1.60;;;24.00;99.90;;;;;;5092883;28;20122;-81
2023/07/06 03:05:14;;;;;;;3.63;1.55;;;24.00;99.90;;;;;;5092586;28;20032;-79
2023/07/06 03:07:41;;;;;;;;;;;23.90;99.90;;;;;;5094570;28;20093;-81
2023/07/06 03:10:08;;;;;;;6.53;2.30;;;23.80;99.90;;;;;;5094166;28;20302;-80
2023/07/06 03:12:38;;;;;;;7.53;2.22;;;23.70;99.90;;;;;;5093679;28;20044;-80
2023/07/06 03:15:15;;;;;;;5.07;2.08;;;23.60;99.90;;;;;;5093749;28;20028;-80
2023/07/06 03:17:42;;;;;;;4.95;1.88;;;23.50;99.90;;;;;;5093798;28;20147;-80
2023/07/06 03:20:15;;;;;;;2.95;1.58;;;23.50;99.90;;;;;;5093907;28;20032;-81
2023/07/06 03:22:45;;;;;;;4.90;1.90;;;23.40;99.90;;;;;;5094233;28;20058;-80
2023/07/06 03:25:13;;;;;;;6.10;2.00;;;23.30;99.90;;;;;;5093643;28;20024;-79
2023/07/06 03:27:40;;;;;;;4.32;2.13;;;23.30;99.90;;;;;;5093466;28;20073;-82
2023/07/06 03:30:09;;;;;;;5.22;1.70;;;23.20;99.90;;;;;;5093820;28;20028;-80
2023/07/06 03:32:38;;;;;;;4.57;1.65;;;23.20;99.90;;;;;;5093697;28;20526;-81
2023/07/06 03:35:05;;;;;;;4.70;1.58;;;23.20;99.90;;;;;;5094167;28;20099;-81
2023/07/06 03:37:32;;;;;;;6.22;1.58;;;23.20;99.90;;;;;;5093717;28;20031;-79
2023/07/06 03:39:58;;;;;;;5.05;1.45;;;23.20;99.90;;;;;;5093354;28;20387;-81
2023/07/06 03:42:24;;;;;;;3.67;1.70;;;23.20;99.90;;;;;;5093213;28;20024;-81
2023/07/06 03:44:55;;;;;;;6.32;1.70;;;23.30;99.90;;;;;;5092705;28;20020;-80
2023/07/06 03:47:23;;;;;;;3.65;1.30;;;23.40;99.90;;;;;;5092020;28;20555;-80
2023/07/06 03:49:50;;;;;;;3.58;1.63;;;23.40;99.90;;;;;;5093285;28;20142;-81
2023/07/06 03:52:17;;;;;;;3.78;1.65;;;23.50;99.90;;;;;;5093041;28;20480;-81
2023/07/06 03:54:46;;;;;;;6.13;1.85;;;23.50;99.90;;;;;;5093022;28;20031;-82
2023/07/06 03:57:12;;;;;;;5.00;1.35;;;23.60;99.90;;;;;;5093318;28;20028;-81
2023/07/06 03:59:39;;;;;;;5.10;1.55;;;23.60;99.90;;;;;;5093266;28;20095;-79
2023/07/06 04:02:06;;;;;;;7.22;1.60;;;23.70;99.90;;;;;;5093657;28;20135;-81
2023/07/06 04:04:35;;;;;;;4.70;1.80;;;23.70;99.90;;;;;;5093113;28;20024;-82
2023/07/06 04:07:02;;;;;;;5.10;1.77;;;23.70;99.90;;;;;;5093156;28;20024;-79
2023/07/06 04:09:28;;;;;;;3.38;1.48;;;23.80;99.90;;;;;;5093714;28;20024;-80
2023/07/06 04:11:55;;;;;;;4.03;1.42;;;23.80;99.90;;;;;;5092799;28;20036;-78
2023/07/06 04:14:25;;;;;;;3.63;1.60;;;23.80;99.90;;;;;;5093057;28;20052;-81
2023/07/06 04:16:56;;;;;;;7.93;1.52;;;23.80;99.90;;;;;;5093321;28;20110;-79
2023/07/06 04:19:24;;;;;;;4.05;1.63;;;23.80;99.90;;;;;;5093293;28;20017;-78
2023/07/06 04:21:52;;;;;;;3.63;1.60;;;23.80;99.90;;;;;;5093356;28;20417;-80
2023/07/06 04:24:18;;;;;;;4.65;2.00;;;23.90;99.90;;;;;;5091676;28;20016;-80
2023/07/06 04:26:47;;;;;;;4.45;1.60;;;23.90;99.90;;;;;;5093158;28;20052;-80
2023/07/06 04:29:14;;;;;;;4.93;1.88;;;23.90;99.90;;;;;;5092828;28;20020;-80
2023/07/06 04:31:41;;;;;;;4.72;1.70;;;23.90;99.90;;;;;;5093181;28;20043;-80
2023/07/06 04:34:07;;;;;;;3.33;1.52;;;24.00;99.90;;;;;;5092992;28;20017;-80
2023/07/06 04:36:33;;;;;;;3.88;1.55;;;24.00;99.90;;;;;;5092939;28;20028;-80
2023/07/06 04:39:00;;;;;;;4.15;2.00;;;24.00;99.90;;;;;;5091428;28;20024;-80
2023/07/06 04:41:26;;;;;;;;;;;24.00;99.90;;;;;;5093774;28;20028;-82
2023/07/06 04:43:53;;;;;;;3.78;1.40;;;24.00;99.90;;;;;;5092818;28;20284;-82
2023/07/06 04:46:22;;;;;;;5.75;1.73;;;24.00;99.90;;;;;;5092900;28;20054;-81
2023/07/06 04:48:49;;;;;;;4.95;1.75;;;24.00;99.90;;;;;;5092963;28;20487;-79
2023/07/06 04:51:15;;;;;;;;;;;24.00;99.90;;;;;;5091659;28;20182;-78
2023/07/06 04:53:42;;;;;;;;;;;24.00;99.90;;;;;;5093140;28;19938;-80
2023/07/06 04:56:08;;;;;;;8.35;2.17;;;24.00;99.90;;;;;;5093296;28;19904;-81
2023/07/06 04:58:35;;;;;;;7.47;1.50;;;24.00;99.90;;;;;;5096477;28;20056;-81
2023/07/06 05:01:07;;;;;;;5.47;1.67;;;24.00;99.90;;;;;;5097216;28;20029;-81
2023/07/06 05:03:35;;;;;;;3.97;1.92;;;24.00;99.90;;;;;;5097270;28;20073;-82
2023/07/06 05:06:05;;;;;;;3.90;1.70;;;24.20;99.90;;;;;;5096571;28;20050;-82
2023/07/06 05:08:34;;;;;;;3.95;1.67;;;25.40;99.90;;;;;;5096206;28;20019;-80
2023/07/06 05:11:05;;;;;;;5.18;1.58;;;26.90;99.90;;;;;;5096048;28;20032;-79
2023/07/06 05:13:31;;;;;;;3.80;1.60;;;28.00;99.90;;;;;;5095722;28;20078;-79
2023/07/06 05:15:58;;;;;;;7.72;1.90;;;29.00;99.90;;;;;;5094145;28;20031;-79
2023/07/06 05:18:24;;;;;;;5.55;1.80;;;29.70;99.90;;;;;;5096239;28;20141;-82
2023/07/06 05:20:53;;;;;;;6.90;1.60;;;30.00;99.20;;;;;;5094721;28;20473;-82
2023/07/06 05:23:22;;;;;;;7.93;1.67;;;30.50;98.90;;;;;;5095838;28;20032;-82
2023/07/06 05:25:52;;;;;;;5.85;1.80;;;30.70;98.60;;;;;;5096078;28;20013;-82
2023/07/06 05:28:19;;;;;;;12.90;1.90;;;31.90;97.90;;;;;;5095673;28;20456;-82
2023/07/06 05:30:45;;;;;;;9.75;1.88;;;34.10;96.20;;;;;;5095495;28;20025;-81
2023/07/06 05:33:12;;;;;;;6.07;3.10;;;34.40;95.10;;;;;;5095739;28;20032;-81
2023/07/06 05:35:39;;;;;;;11.73;2.47;;;35.30;95.40;;;;;;5095388;28;20032;-82
2023/07/06 05:38:10;;;;;;;6.75;2.30;;;36.80;94.40;;;;;;5095521;28;20032;-81
2023/07/06 05:40:39;;;;;;;7.65;2.10;;;38.20;92.80;;;;;;5094111;28;20492;-81
2023/07/06 05:43:06;;;;;;;5.20;1.90;;;39.30;91.20;;;;;;5095468;28;20032;-81
2023/07/06 05:45:32;;;;;;;5.38;1.60;;;39.90;88.70;;;;;;5095497;28;20016;-80
2023/07/06 05:47:58;;;;;;;7.20;1.77;;;40.20;86.00;;;;;;5095410;28;20107;-82
2023/07/06 05:50:24;;;;;;;6.82;1.77;;;40.40;83.50;;;;;;5095397;28;20016;-81
2023/07/06 05:52:50;;;;;;;9.88;1.80;;;39.10;81.60;;;;;;5095167;28;20040;-81
2023/07/06 05:55:16;;;;;;;5.70;2.30;;;38.40;81.70;;;;;;5093604;28;20031;-82
2023/07/06 05:57:45;;;;;;;6.43;1.88;;;39.00;82.80;;;;;;5094697;28;20032;-81
2023/07/06 06:00:11;;;;;;;7.18;1.70;;;40.20;81.10;;;;;;5094925;28;20388;-81
2023/07/06 06:02:39;;;;;;;9.15;1.90;;;41.50;79.80;;;;;;5094906;28;20028;-81
2023/07/06 06:05:06;;;;;;;5.30;2.00;;;41.70;76.90;;;;;;5094984;28;20103;-81
2023/07/06 06:07:33;;;;;;;8.35;1.77;;;42.00;73.10;;;;;;5094578;28;20023;-81
2023/07/06 06:10:03;;;;;;;4.45;1.52;;;41.20;72.80;;;;;;5095154;28;20080;-80
2023/07/06 06:12:31;;;;;;;4.63;1.80;;;38.40;75.50;;;;;;5094587;28;20039;-80
2023/07/06 06:14:58;;;;;;;7.38;1.88;;;38.00;76.40;;;;;;5094779;28;20468;-79
2023/07/06 06:17:31;;;;;;;4.93;1.63;;;38.90;76.20;;;;;;5093029;28;20104;-81
2023/07/06 06:19:58;;;;;;;10.63;1.90;;;39.80;73.70;;;;;;5093700;28;20050;-81
2023/07/06 06:22:24;;;;;;;8.77;2.05;;;40.70;72.60;;;;;;5093191;28;20472;-81
2023/07/06 06:24:50;;;;;;;20.38;2.67;;;41.80;73.20;;;;;;5094856;28;20020;-81
2023/07/06 06:27:18;;;;;;;10.57;2.00;;;43.30;71.50;;;;;;5094260;28;20020;-81
2023/07/06 06:29:44;;;;;;;11.77;2.10;;;44.40;68.90;;;;;;5094363;28;20035;-81
2023/07/06 06:32:11;;;;;;;31.23;2.75;;;44.50;66.30;;;;;;5094517;28;20032;-81
2023/07/06 06:34:38;;;;;;;10.25;2.05;;;44.80;64.30;;;;;;5094540;28;20024;-81
2023/07/06 06:37:05;;;;;;;3.97;1.60;;;44.00;63.80;;;;;;5094131;28;20090;-82
2023/07/06 06:39:35;;;;;;;6.95;1.50;;;43.70;61.20;;;;;;5094027;28;20077;-82
2023/07/06 06:42:02;;;;;;;14.23;1.95;;;43.50;61.40;;;;;;5093823;28;20024;-80
2023/07/06 06:44:31;;;;;;;7.68;1.52;;;43.10;60.60;;;;;;5093957;28;20307;-81
2023/07/06 06:47:00;;;;;;;5.13;1.60;;;43.20;61.10;;;;;;5094418;28;20027;-81
2023/07/06 06:49:26;;;;;;;8.13;1.73;;;43.20;60.60;;;;;;5093960;28;20526;-81
2023/07/06 06:51:53;;;;;;;9.38;1.67;;;44.00;59.90;;;;;;5094497;28;20468;-81
2023/07/06 06:54:19;;;;;;;7.68;1.58;;;43.20;59.30;;;;;;5094613;28;20023;-81
2023/07/06 06:56:45;;;;;;;12.80;2.00;;;42.80;60.10;;;;;;5092511;28;20111;-81
2023/07/06 06:59:12;;;;;;;11.15;1.98;;;42.80;60.50;;;;;;5094145;28;20069;-81
2023/07/06 07:01:40;;;;;;;8.57;1.65;;;43.30;59.30;;;;;;5092652;28;20020;-81
2023/07/06 07:04:10;;;;;;;11.65;2.33;;;43.50;58.30;;;;;;5092695;28;20032;-79
2023/07/06 07:06:40;;;;;;;6.93;1.70;;;43.60;58.40;;;;;;5093987;28;20028;-80
2023/07/06 07:09:10;;;;;;;12.48;2.13;;;44.10;58.60;;;;;;5092473;28;20024;-80
2023/07/06 07:11:37;;;;;;;20.60;3.13;;;44.60;58.30;;;;;;5093756;28;20040;-79
2023/07/06 07:14:03;;;;;;;11.50;1.58;;;44.50;56.90;;;;;;5093745;28;20020;-80
2023/07/06 07:16:29;;;;;;;9.00;1.88;;;42.80;58.30;;;;;;5093181;28;20036;-80
2023/07/06 07:18:55;;;;;;;15.15;2.10;;;42.30;59.40;;;;;;5093161;28;20039;-79
2023/07/06 07:21:21;;;;;;;8.25;2.13;;;42.00;59.90;;;;;;5093822;28;20024;-80
2023/07/06 07:23:49;;;;;;;5.15;1.70;;;41.30;60.80;;;;;;5092053;28;20051;-80
2023/07/06 07:26:20;;;;;;;8.25;2.13;;;40.40;60.90;;;;;;5093682;28;20089;-80
2023/07/06 07:28:51;;;;;;;9.82;2.08;;;40.20;61.70;;;;;;5093214;28;20027;-80
2023/07/06 07:31:19;;;;;;;10.50;2.10;;;39.40;62.60;;;;;;5093700;28;20016;-80
2023/07/06 07:33:46;;;;;;;5.78;2.20;;;39.10;62.70;;;;;;5093802;28;20035;-79
2023/07/06 07:36:16;;;;;;;8.80;2.03;;;38.60;62.20;;;;;;5093363;28;20024;-79
2023/07/06 07:38:44;;;;;;;7.30;2.13;;;38.10;62.90;;;;;;5091997;28;20031;-80
2023/07/06 07:41:12;;;;;;;10.23;2.42;;;37.60;63.40;;;;;;5092923;28;20413;-79
2023/07/06 07:43:42;;;;;;;11.73;2.85;;;37.30;63.90;;;;;;5093138;28;20016;-79
2023/07/06 07:46:11;;;;;;;6.82;1.90;;;37.70;64.40;;;;;;5092793;28;20495;-80
2023/07/06 07:48:40;;;;;;;13.27;1.90;;;37.60;63.40;;;;;;5091415;28;20023;-81
2023/07/06 07:51:08;;;;;;;5.43;1.90;;;37.40;64.40;;;;;;5092829;28;20126;-80
2023/07/06 07:53:37;;;;;;;7.50;2.10;;;37.10;63.50;;;;;;5093006;28;20036;-79
2023/07/06 07:56:06;;;;;;;10.05;2.47;;;37.00;64.10;;;;;;5092671;28;20028;-79
2023/07/06 07:58:34;;;;;;;10.38;2.70;;;37.30;64.50;;;;;;5093174;28;20027;-80
2023/07/06 08:01:02;;;;;;;16.42;2.45;;;37.60;63.90;;;;;;5092985;28;20473;-79
2023/07/06 08:03:28;;;;;;;8.43;2.40;;;37.50;63.30;;;;;;5091321;28;20038;-78
2023/07/06 08:06:02;;;;;;;11.52;2.33;;;37.30;64.70;;;;;;5092878;28;20035;-80
2023/07/06 08:08:30;;;;;;;11.43;3.53;;;37.50;63.50;;;;;;5091374;28;20020;-81
2023/07/06 08:11:05;;;;;;;6.65;2.10;;;37.30;64.30;;;;;;5074624;28;20051;-80
2023/07/06 08:13:32;;;;;;;6.53;2.10;;;37.30;62.80;;;;;;5092772;28;20108;-80
2023/07/06 08:15:58;;;;;;;7.15;2.00;;;37.40;63.60;;;;;;5092730;28;20101;-79
2023/07/06 08:18:25;;;;;;;8.80;2.08;;;36.90;62.00;;;;;;5093320;28;20028;-80
2023/07/06 08:20:53;;;;;;;6.57;1.67;;;36.50;62.00;;;;;;5092758;28;20028;-80
2023/07/06 08:23:25;;;;;;;7.07;2.35;;;36.70;63.60;;;;;;5092534;28;20026;-80
2023/07/06 08:25:52;;;;;;;9.95;2.20;;;36.90;63.40;;;;;;5092977;28;20024;-80
2023/07/06 08:28:28;;;;;;;8.07;2.20;;;36.30;63.40;;;;;;5092529;28;20111;-80
2023/07/06 08:30:55;;;;;;;4.70;2.28;;;35.80;64.80;;;;;;5095533;28;20078;-80
2023/07/06 08:33:21;;;;;;;13.43;2.25;;;36.20;65.20;;;;;;5096842;28;20032;-79
2023/07/06 08:35:49;;;;;;;5.22;2.08;;;36.60;65.60;;;;;;5096855;28;20035;-79
2023/07/06 08:38:15;;;;;;;6.63;2.20;;;36.70;65.50;;;;;;5096407;28;20064;-80
2023/07/06 08:40:47;;;;;;;3.67;1.65;;;37.00;65.10;;;;;;5097028;28;20047;-81
2023/07/06 08:43:25;;;;;;;7.55;2.08;;;37.00;64.00;;;;;;5096419;28;20027;-80
2023/07/06 08:46:00;;;;;;;5.30;1.90;;;36.90;63.80;;;;;;5095001;28;20032;-80
2023/07/06 08:48:30;;;;;;;4.63;1.90;;;37.00;63.50;;;;;;5094910;28;20407;-81
2023/07/06 08:51:01;;;;;;;9.35;2.20;;;36.40;63.60;;;;;;5096937;28;20020;-80
2023/07/06 08:53:33;;;;;;;6.03;2.08;;;36.10;64.30;;;;;;5096265;28;20081;-80
2023/07/06 08:56:04;;;;;;;6.65;1.90;;;36.10;63.90;;;;;;5096132;28;20040;-80
2023/07/06 08:58:33;;;;;;;7.22;1.95;;;36.20;62.90;;;;;;5095878;28;20035;-81
2023/07/06 09:01:12;;;;;;;13.00;2.25;;;35.90;63.00;;;;;;5096284;28;20020;-80
2023/07/06 09:03:55;;;;;;;6.43;2.13;;;35.30;63.80;;;;;;5096550;28;20028;-80
2023/07/06 09:06:26;;;;;;;4.45;2.20;;;35.00;64.60;;;;;;5095974;28;20028;-80
2023/07/06 09:08:56;;;;;;;5.53;2.00;;;34.80;64.80;;;;;;5095791;28;20364;-80
2023/07/06 09:11:25;;;;;;;4.95;1.50;;;34.60;64.80;;;;;;5095538;28;20383;-80
2023/07/06 09:13:58;;;;;;;5.80;1.88;;;34.60;64.30;;;;;;5095606;28;20158;-79
2023/07/06 09:16:25;;;;;;;4.63;1.67;;;34.90;65.00;;;;;;5095428;28;20109;-79
2023/07/06 09:18:53;;;;;;;4.95;1.83;;;35.10;64.60;;;;;;5095751;28;20035;-80
2023/07/06 09:21:26;;;;;;;4.68;1.80;;;34.90;65.90;;;;;;5094400;28;20114;-79
2023/07/06 09:23:53;;;;;;;3.00;1.50;;;35.10;65.30;;;;;;5096268;28;20016;-80
2023/07/06 09:26:29;;;;;;;5.90;1.70;;;34.70;65.20;;;;;;5095849;28;20039;-79
2023/07/06 09:29:29;;;;;;;5.57;1.90;;;34.50;65.60;;;;;;5095513;28;20016;-79
2023/07/06 09:32:22;;;;;;;5.05;1.77;;;34.50;65.80;;;;;;5093502;28;20047;-80
2023/07/06 09:34:55;;;;;;;7.13;1.83;;;34.30;66.50;;;;;;5095825;28;20024;-81
2023/07/06 09:37:22;;;;;;;4.72;1.67;;;34.30;66.20;;;;;;5095776;28;20024;-81
2023/07/06 09:40:01;;;;;;;8.48;2.00;;;34.40;65.20;;;;;;5093818;28;20035;-80
2023/07/06 09:42:31;;;;;;;4.30;1.70;;;34.10;64.90;;;;;;5092862;28;20357;-80
2023/07/06 09:45:00;;;;;;;9.27;2.10;;;34.20;65.20;;;;;;5095577;28;20028;-80
2023/07/06 09:47:28;;;;;;;8.27;2.13;;;34.20;66.50;;;;;;5093642;28;20020;-80
2023/07/06 09:50:04;;;;;;;11.75;2.10;;;34.30;65.70;;;;;;5094834;28;20032;-79
2023/07/06 09:52:33;;;;;;;7.13;1.90;;;34.40;64.60;;;;;;5095367;28;20031;-80
2023/07/06 09:55:19;;;;;;;8.35;2.50;;;34.60;65.10;;;;;;5095323;28;20044;-80
2023/07/06 09:57:49;;;;;;;7.68;1.70;;;34.90;66.10;;;;;;5094989;28;20020;-80
2023/07/06 10:00:18;;;;;;;48.95;3.50;;;34.40;65.80;;;;;;5095120;28;20027;-80
2023/07/06 10:03:11;;;;;;;6.35;1.70;;;34.50;65.70;;;;;;5094834;28;20043;-78
2023/07/06 10:05:45;;;;;;;7.18;2.05;;;34.30;66.30;;;;;;5095355;28;20405;-80
2023/07/06 10:08:26;;;;;;;6.35;1.63;;;34.50;65.90;;;;;;5095231;28;20117;-80
2023/07/06 10:11:06;;;;;;;5.10;1.63;;;33.90;65.50;;;;;;5094967;28;20035;-79
2023/07/06 10:13:38;;;;;;;4.68;1.65;;;34.10;65.30;;;;;;5094694;28;20432;-80
2023/07/06 10:16:32;;;;;;;6.22;1.50;;;34.00;65.90;;;;;;5094351;28;20032;-79
2023/07/06 10:19:25;;;;;;;6.63;1.98;;;33.90;66.20;;;;;;5094618;28;20445;-80
2023/07/06 10:22:21;;;;;;;4.53;1.50;;;33.90;66.60;;;;;;5094529;28;20039;-80
2023/07/06 10:25:18;;;;;;;3.92;1.67;;;34.10;65.70;;;;;;5088969;28;20111;-81
2023/07/06 10:27:50;;;;;;;11.00;2.60;;;34.10;65.60;;;;;;5092872;28;20391;-81
2023/07/06 10:30:26;;;;;;;11.55;2.55;;;34.10;65.50;;;;;;5094700;28;20023;-79
2023/07/06 10:32:57;;;;;;;8.70;3.50;;;33.80;63.90;;;;;;5094477;28;20567;-81
2023/07/06 10:35:33;;;;;;;9.50;5.35;;;33.70;65.20;;;;;;5094278;28;20032;-79
2023/07/06 10:37:59;;;;;;;14.07;6.88;;;33.80;63.70;;;;;;5094898;28;20028;-79
2023/07/06 10:40:28;;;;;;;13.25;5.00;;;33.80;64.90;;;;;;5094302;28;20398;-79
2023/07/06 10:43:13;;;;;;;7.22;2.42;;;33.80;64.90;;;;;;5093897;28;20110;-80
2023/07/06 10:45:43;;;;;;;4.18;1.75;;;33.80;64.10;;;;;;5094139;28;20038;-79
2023/07/06 10:48:22;;;;;;;11.73;2.08;;;33.80;65.30;;;;;;5092436;28;20348;-80
2023/07/06 10:51:08;;;;;;;5.03;2.00;;;33.80;65.40;;;;;;5093858;28;20028;-80
2023/07/06 10:53:42;;;;;;;4.95;1.83;;;33.80;65.80;;;;;;5094376;28;20092;-80
2023/07/06 10:56:11;;;;;;;7.75;1.90;;;33.70;65.50;;;;;;5094454;28;20028;-80
2023/07/06 10:58:48;;;;;;;4.88;2.20;;;33.90;66.50;;;;;;5093598;28;20082;-80
2023/07/06 11:01:19;;;;;;;9.05;1.77;;;33.90;66.10;;;;;;5094172;28;20024;-80
2023/07/06 11:03:46;;;;;;;3.38;1.55;;;34.00;66.00;;;;;;5094234;28;20478;-79
2023/07/06 11:06:36;;;;;;;3.30;1.80;;;34.10;64.50;;;;;;5093584;28;20024;-79
2023/07/06 11:09:08;;;;;;;5.25;1.90;;;34.00;65.60;;;;;;5093990;28;20055;-79
2023/07/06 11:11:39;;;;;;;4.90;1.80;;;34.10;64.70;;;;;;5092401;28;20028;-79
2023/07/06 11:14:23;;;;;;;5.60;1.90;;;34.00;66.70;;;;;;5093221;28;20080;-79
2023/07/06 11:16:56;;;;;;;6.03;1.50;;;33.90;67.00;;;;;;5092153;28;20035;-81
2023/07/06 11:19:28;;;;;;;9.38;2.00;;;33.80;68.10;;;;;;5093904;28;20032;-80
2023/07/06 11:22:00;;;;;;;3.50;1.55;;;33.80;68.40;;;;;;5093697;28;20031;-81
2023/07/06 11:24:32;;;;;;;10.25;1.73;;;33.70;67.20;;;;;;5093678;28;20020;-81
2023/07/06 11:27:15;;;;;;;8.63;1.70;;;33.60;67.30;;;;;;5092055;28;20035;-80
2023/07/06 11:29:41;;;;;;;5.20;1.88;;;33.60;66.10;;;;;;5092777;28;20024;-80
2023/07/06 11:32:22;;;;;;;10.85;3.55;;;33.50;67.20;;;;;;5093047;28;20071;-80
2023/07/06 11:35:16;;;;;;;10.65;2.53;;;33.60;68.00;;;;;;5093713;28;20016;-80
2023/07/06 11:37:56;;;;;;;9.07;2.42;;;33.60;68.20;;;;;;5093385;28;20099;-81
2023/07/06 11:40:46;;;;;;;8.98;2.00;;;33.70;69.10;;;;;;5091878;28;20081;-80
2023/07/06 11:43:42;;;;;;;5.78;2.25;;;33.60;69.20;;;;;;5093096;28;20020;-80
2023/07/06 11:46:44;;;;;;;4.90;1.80;;;33.40;70.10;;;;;;5092061;28;20032;-82
2023/07/06 11:49:47;;;;;;;10.50;3.53;;;33.20;70.50;;;;;;5093752;28;20115;-79
2023/07/06 11:52:26;;;;;;;6.18;2.22;;;33.10;70.90;;;;;;5093083;28;20035;-81
2023/07/06 11:55:07;;;;;;;9.15;2.45;;;33.20;71.30;;;;;;5093319;28;20099;-80
2023/07/06 11:57:54;;;;;;;5.70;2.58;;;33.40;70.50;;;;;;5093276;28;20039;-82
2023/07/06 12:03:08;;;;;;;6.63;1.90;;;33.60;70.80;;;;;;5093198;28;20172;-81
2023/07/06 12:05:47;;;;;;;7.25;2.03;;;33.40;71.00;;;;;;5093090;28;20468;-80
2023/07/06 12:08:24;;;;;;;8.43;3.40;;;33.60;70.00;;;;;;5091885;28;20426;-81
2023/07/06 12:10:53;;;;;;;4.00;2.03;;;33.70;70.70;;;;;;5092922;28;20384;-81
2023/07/06 12:13:25;;;;;;;6.10;1.95;;;33.60;68.90;;;;;;5092915;28;20481;-80
2023/07/06 12:16:15;;;;;;;4.90;2.50;;;33.70;70.20;;;;;;5092897;28;20031;-81
2023/07/06 12:18:46;;;;;;;7.75;2.10;;;33.90;69.40;;;;;;5093058;28;20396;-81
2023/07/06 12:21:42;;;;;;;6.28;2.00;;;33.70;67.90;;;;;;5093205;28;20508;-81
2023/07/06 12:24:12;;;;;;;;;;;33.80;67.60;;;;;;5092058;28;20369;-80
2023/07/06 12:27:10;;;;;;;11.63;1.80;;;33.90;66.40;;;;;;5093205;28;20270;-81
2023/07/06 12:29:36;;;;;;;5.35;1.90;;;34.00;66.40;;;;;;5092855;28;20601;-81
2023/07/06 12:32:07;;;;;;;;;;;34.20;64.40;;;;;;5091747;28;20131;-80
2023/07/06 12:34:37;;;;;;;7.10;2.30;;;34.30;64.10;;;;;;5093429;28;19951;-80
2023/07/06 12:37:03;;;;;;;6.03;1.70;;;34.40;65.00;;;;;;5092608;28;20020;-79
2023/07/06 12:39:36;;;;;;;5.85;1.42;;;34.30;63.40;;;;;;5092997;28;20032;-80
2023/07/06 12:42:02;;;;;;;5.82;2.30;;;34.20;63.40;;;;;;5093218;28;20050;-81
2023/07/06 12:44:29;;;;;;;10.20;3.08;;;34.30;63.90;;;;;;5091372;28;20575;-81
2023/07/06 12:47:01;;;;;;;7.55;1.98;;;34.50;64.30;;;;;;5092991;28;20016;-80
2023/07/06 12:49:29;;;;;;;4.63;1.63;;;34.60;62.50;;;;;;5092615;28;20032;-81
2023/07/06 12:51:57;;;;;;;6.40;1.35;;;34.60;61.70;;;;;;5092769;28;20028;-81
2023/07/06 12:54:25;;;;;;;7.55;1.40;;;34.30;61.30;;;;;;5093127;28;20020;-80
2023/07/06 12:57:16;;;;;;;13.73;2.00;;;34.40;61.90;;;;;;5092661;28;20043;-80
2023/07/06 12:59:42;;;;;;;5.28;1.77;;;34.60;61.30;;;;;;5091442;28;20026;-80
2023/07/06 13:02:19;;;;;;;;;;;34.60;61.60;;;;;;5093291;28;20024;-80
2023/07/06 13:04:47;;;;;;;14.13;1.90;;;34.70;61.20;;;;;;5091325;28;19908;-80
2023/07/06 13:07:19;;;;;;;7.93;1.45;;;34.70;61.10;;;;;;5092866;28;20034;-81
2023/07/06 13:09:47;;;;;;;9.77;1.85;;;34.30;61.00;;;;;;5092555;28;20474;-80
2023/07/06 13:12:31;;;;;;;9.02;1.65;;;34.50;60.60;;;;;;5092135;28;20043;-81